KDXR/DXR METAR and TAF weather

Enter ICAO airport designator
Station Type Date Time Source
KDXR METAR 2018/01/23 00:53 UTC NOAA

KDXR 230053Z 07007KT 1SM BR OVC003 04/03 A3015 RMK AO2 SLP212 T00390033


Station Type Date Time Source
KDXR Decoded METAR 2018/01/23 00:53 UTC NOAA

DANBURY MUNICIPAL AIRPORT, CT, United States (KDXR) 41-22N 073-29W 139M
Jan 22, 2018 - 07:53 PM EST / 2018.01.23 0053 UTC
Wind: from the ENE (070 degrees) at 8 MPH (7 KT):0
Visibility: 1 mile(s):0
Sky conditions: overcast
Weather: mist
Temperature: 39.0 F (3.9 C)
Dew Point: 37.9 F (3.3 C)
Relative Humidity: 95%
Pressure (altimeter): 30.15 in. Hg (1020 hPa)
ob: KDXR 230053Z 07007KT 1SM BR OVC003 04/03 A3015 RMK AO2 SLP212 T00390033
cycle: 1

Station Type Date Time Source
KDXR TAF UTC NOAA

Error!


Example: see airport list